createdAt,value
2023-01-13T00:00:16.855Z,98.70
2023-01-13T00:02:43.936Z,98.70
2023-01-13T00:05:11.430Z,98.70
2023-01-13T00:07:40.270Z,98.70
2023-01-13T00:10:11.553Z,98.70
2023-01-13T00:12:41.925Z,98.70
2023-01-13T00:15:09.987Z,98.60
2023-01-13T00:17:37.217Z,98.50
2023-01-13T00:20:04.920Z,98.40
2023-01-13T00:22:35.063Z,98.40
2023-01-13T00:25:04.278Z,98.30
2023-01-13T00:27:31.663Z,98.30
2023-01-13T00:29:59.249Z,98.30
2023-01-13T00:32:27.218Z,98.20
2023-01-13T00:34:54.592Z,98.20
2023-01-13T00:37:21.743Z,98.20
2023-01-13T00:39:48.769Z,98.10
2023-01-13T00:42:34.516Z,98.10
2023-01-13T00:45:01.500Z,98.10
2023-01-13T00:47:28.462Z,98.10
2023-01-13T00:49:55.689Z,98.00
2023-01-13T00:52:22.680Z,98.00
2023-01-13T00:54:49.755Z,98.00
2023-01-13T00:57:16.911Z,98.30
2023-01-13T00:59:43.887Z,98.00
2023-01-13T01:02:10.934Z,98.00
2023-01-13T01:04:38.044Z,98.00
2023-01-13T01:07:05.009Z,98.00
2023-01-13T01:09:34.663Z,98.10
2023-01-13T01:12:01.885Z,98.20
2023-01-13T01:14:28.947Z,98.30
2023-01-13T01:16:55.923Z,98.30
2023-01-13T01:19:23.639Z,98.20
2023-01-13T01:21:50.664Z,98.10
2023-01-13T01:24:17.738Z,98.10
2023-01-13T01:26:44.760Z,98.10
2023-01-13T01:29:15.301Z,98.10
2023-01-13T01:31:43.202Z,98.10
2023-01-13T01:34:10.269Z,98.00
2023-01-13T01:36:37.314Z,98.10
2023-01-13T01:39:05.184Z,98.20
2023-01-13T01:41:34.679Z,98.20
2023-01-13T01:44:43.681Z,98.30
2023-01-13T01:47:14.671Z,98.40
2023-01-13T01:49:43.112Z,98.50
2023-01-13T01:52:19.395Z,98.50
2023-01-13T01:55:10.941Z,98.50
2023-01-13T01:57:57.284Z,98.60
2023-01-13T02:00:26.220Z,98.60
2023-01-13T02:02:53.581Z,98.60
2023-01-13T02:05:21.179Z,98.60
2023-01-13T02:07:52.619Z,98.60
2023-01-13T02:10:23.827Z,98.50
2023-01-13T02:12:52.018Z,98.50
2023-01-13T02:15:56.193Z,98.50
2023-01-13T02:18:52.788Z,98.50
2023-01-13T02:22:04.350Z,98.50
2023-01-13T02:24:57.532Z,98.40
2023-01-13T02:28:07.838Z,98.30
2023-01-13T02:31:15.944Z,98.30
2023-01-13T02:34:21.918Z,98.30
2023-01-13T02:37:16.987Z,98.30
2023-01-13T02:39:59.102Z,98.30
2023-01-13T02:42:53.872Z,98.30
2023-01-13T02:45:29.700Z,98.30
2023-01-13T02:47:59.315Z,98.20
2023-01-13T02:50:34.744Z,98.20
2023-01-13T02:53:16.055Z,98.20
2023-01-13T02:55:53.857Z,98.20
2023-01-13T02:58:26.811Z,98.10
2023-01-13T03:00:55.127Z,98.00
2023-01-13T03:03:22.080Z,98.00
2023-01-13T03:05:59.317Z,97.90
2023-01-13T03:08:43.190Z,97.90
2023-01-13T03:11:13.481Z,97.80
2023-01-13T03:13:59.738Z,97.70
2023-01-13T03:17:02.578Z,97.80
2023-01-13T03:19:44.916Z,97.70
2023-01-13T03:22:30.726Z,97.80
2023-01-13T03:25:34.475Z,97.80
2023-01-13T03:28:19.751Z,97.80
2023-01-13T03:30:54.484Z,97.80
2023-01-13T03:33:29.712Z,97.70
2023-01-13T03:36:03.749Z,97.80
2023-01-13T03:38:54.475Z,97.90
2023-01-13T03:41:36.884Z,97.90
2023-01-13T03:44:23.949Z,97.90
2023-01-13T03:47:29.222Z,97.90
2023-01-13T03:50:12.100Z,97.90
2023-01-13T03:52:50.657Z,97.90
2023-01-13T03:55:23.118Z,97.90
2023-01-13T03:58:10.938Z,97.90
2023-01-13T04:00:46.776Z,98.00
2023-01-13T04:03:25.360Z,97.90
2023-01-13T04:06:04.694Z,97.90
2023-01-13T04:08:33.590Z,98.00
2023-01-13T04:11:10.951Z,98.00
2023-01-13T04:13:41.794Z,98.10
2023-01-13T04:16:11.213Z,98.20
2023-01-13T04:18:39.749Z,98.30
2023-01-13T04:21:07.827Z,98.50
2023-01-13T04:23:34.894Z,98.70
2023-01-13T04:26:01.805Z,98.70
2023-01-13T04:28:28.723Z,98.90
2023-01-13T04:30:55.626Z,98.90
2023-01-13T04:33:22.544Z,98.90
2023-01-13T04:35:49.499Z,98.80
2023-01-13T04:38:20.484Z,98.80
2023-01-13T04:40:47.766Z,98.60
2023-01-13T04:43:15.774Z,98.50
2023-01-13T04:45:43.706Z,98.40
2023-01-13T04:48:10.714Z,98.30
2023-01-13T04:50:37.655Z,98.30
2023-01-13T04:53:04.646Z,98.10
2023-01-13T04:55:32.090Z,98.00
2023-01-13T04:58:08.116Z,97.80
2023-01-13T05:00:35.770Z,97.60
2023-01-13T05:03:03.465Z,97.40
2023-01-13T05:05:30.969Z,97.40
2023-01-13T05:07:58.377Z,97.20
2023-01-13T05:10:26.404Z,96.90
2023-01-13T05:13:12.190Z,97.00
2023-01-13T05:15:59.839Z,96.70
2023-01-13T05:18:28.347Z,96.70
2023-01-13T05:20:55.241Z,96.70
2023-01-13T05:23:40.927Z,96.60
2023-01-13T05:26:07.914Z,96.60
2023-01-13T05:28:35.084Z,96.70
2023-01-13T05:31:02.070Z,96.70
2023-01-13T05:33:29.238Z,96.70
2023-01-13T05:35:56.121Z,96.70
2023-01-13T05:38:23.018Z,96.70
2023-01-13T05:41:08.197Z,96.70
2023-01-13T05:43:35.071Z,96.70
2023-01-13T05:46:09.989Z,96.70
2023-01-13T05:48:41.618Z,96.80
2023-01-13T05:51:11.786Z,96.90
2023-01-13T05:53:40.744Z,96.90
2023-01-13T05:56:09.332Z,97.00
2023-01-13T05:58:36.258Z,96.90
2023-01-13T06:01:08.909Z,96.90
2023-01-13T06:03:36.404Z,96.90
2023-01-13T06:06:04.232Z,96.90
2023-01-13T06:08:31.930Z,96.90
2023-01-13T06:10:58.845Z,96.80
2023-01-13T06:13:25.808Z,96.70
2023-01-13T06:15:57.775Z,96.80
2023-01-13T06:18:25.449Z,96.80
2023-01-13T06:20:52.358Z,96.70
2023-01-13T06:23:19.401Z,96.70
2023-01-13T06:26:00.283Z,96.70
2023-01-13T06:28:27.209Z,96.60
2023-01-13T06:31:00.661Z,96.50
2023-01-13T06:33:36.871Z,96.50
2023-01-13T06:36:11.585Z,96.40
2023-01-13T06:38:42.756Z,96.40
2023-01-13T06:41:09.958Z,96.40
2023-01-13T06:43:38.289Z,96.40
2023-01-13T06:46:05.564Z,96.30
2023-01-13T06:48:35.105Z,96.30
2023-01-13T06:51:03.663Z,96.30
2023-01-13T06:53:30.619Z,96.30
2023-01-13T06:55:57.527Z,96.30
2023-01-13T06:58:24.398Z,96.40
2023-01-13T07:00:51.681Z,96.40
2023-01-13T07:03:19.849Z,96.40
2023-01-13T07:05:54.206Z,96.40
2023-01-13T07:08:22.520Z,96.40
2023-01-13T07:10:49.449Z,96.40
2023-01-13T07:13:34.828Z,96.30
2023-01-13T07:16:04.947Z,96.30
2023-01-13T07:18:34.334Z,96.30
2023-01-13T07:21:07.559Z,96.30
2023-01-13T07:23:37.687Z,96.30
2023-01-13T07:26:05.481Z,96.30
2023-01-13T07:28:32.722Z,96.30
2023-01-13T07:31:00.248Z,96.30
2023-01-13T07:33:27.163Z,96.30
2023-01-13T07:36:00.376Z,96.30
2023-01-13T07:38:28.063Z,96.20
2023-01-13T07:40:55.230Z,96.30
2023-01-13T07:43:34.164Z,96.20
2023-01-13T07:46:04.856Z,96.20
2023-01-13T07:48:34.270Z,96.20
2023-01-13T07:51:07.198Z,96.20
2023-01-13T07:53:34.700Z,96.10
2023-01-13T07:56:03.831Z,96.20
2023-01-13T07:58:30.960Z,96.20
2023-01-13T08:00:58.050Z,96.20
2023-01-13T08:03:25.328Z,96.40
2023-01-13T08:05:52.253Z,96.30
2023-01-13T08:08:19.246Z,96.40
2023-01-13T08:10:46.206Z,96.40
2023-01-13T08:13:22.562Z,96.40
2023-01-13T08:15:52.356Z,96.50
2023-01-13T08:18:22.200Z,96.50
2023-01-13T08:20:52.871Z,96.60
2023-01-13T08:23:22.337Z,96.70
2023-01-13T08:25:50.174Z,96.80
2023-01-13T08:28:17.419Z,97.00
2023-01-13T08:30:44.513Z,97.00
2023-01-13T08:33:12.948Z,97.10
2023-01-13T08:35:41.283Z,97.30
2023-01-13T08:38:09.170Z,97.30
2023-01-13T08:40:36.482Z,97.40
2023-01-13T08:43:03.517Z,97.40
2023-01-13T08:45:30.422Z,97.40
2023-01-13T08:47:57.443Z,97.30
2023-01-13T08:50:24.351Z,97.30
2023-01-13T08:52:51.263Z,97.30
2023-01-13T08:55:18.161Z,97.30
2023-01-13T08:57:45.314Z,97.20
2023-01-13T09:00:13.769Z,97.20
2023-01-13T09:02:40.958Z,97.20
2023-01-13T09:05:09.246Z,97.10
2023-01-13T09:07:38.030Z,97.20
2023-01-13T09:10:07.412Z,97.10
2023-01-13T09:12:52.623Z,97.00
2023-01-13T09:15:19.587Z,96.90
2023-01-13T09:17:47.864Z,97.00
2023-01-13T09:20:14.954Z,96.50
2023-01-13T09:22:41.913Z,96.70
2023-01-13T09:25:09.566Z,96.50
2023-01-13T09:27:36.484Z,96.50
2023-01-13T09:30:04.154Z,96.30
2023-01-13T09:32:31.096Z,96.20
2023-01-13T09:35:01.201Z,95.80
2023-01-13T09:37:36.516Z,95.50
2023-01-13T09:40:19.488Z,95.60
2023-01-13T09:43:18.793Z,95.70
2023-01-13T09:46:04.497Z,95.60
2023-01-13T09:48:52.073Z,95.00
2023-01-13T09:51:34.007Z,95.20
2023-01-13T09:54:13.607Z,94.70
2023-01-13T09:56:40.559Z,94.80
2023-01-13T09:59:11.662Z,94.20
2023-01-13T10:02:04.827Z,94.50
2023-01-13T10:04:31.766Z,94.60
2023-01-13T10:07:03.679Z,94.50
2023-01-13T10:09:34.528Z,94.50
2023-01-13T10:12:21.356Z,94.50
2023-01-13T10:14:55.769Z,94.60
2023-01-13T10:17:50.742Z,94.30
2023-01-13T10:20:21.743Z,94.30
2023-01-13T10:23:05.048Z,94.00
2023-01-13T10:25:42.496Z,94.10
2023-01-13T10:28:13.576Z,94.20
2023-01-13T10:30:43.911Z,94.30
2023-01-13T10:33:10.700Z,94.30
2023-01-13T10:36:13.803Z,94.30
2023-01-13T10:38:47.692Z,93.80
2023-01-13T10:41:23.572Z,93.80
2023-01-13T10:44:07.782Z,93.60
2023-01-13T10:46:55.334Z,93.80
2023-01-13T10:49:32.610Z,93.40
2023-01-13T10:52:01.907Z,93.40
2023-01-13T10:54:29.773Z,93.50
2023-01-13T10:57:21.213Z,93.40
2023-01-13T10:59:48.819Z,93.20
2023-01-13T11:02:34.362Z,93.20
2023-01-13T11:05:24.781Z,93.40
2023-01-13T11:07:54.890Z,93.30
2023-01-13T11:10:28.959Z,93.50
2023-01-13T11:13:18.224Z,93.70
2023-01-13T11:15:53.902Z,93.20
2023-01-13T11:18:51.570Z,93.50
2023-01-13T11:21:28.339Z,93.00
2023-01-13T11:24:12.664Z,93.10
2023-01-13T11:26:57.117Z,93.10
2023-01-13T11:30:00.244Z,93.10
2023-01-13T11:32:31.556Z,92.90
2023-01-13T11:35:05.803Z,92.90
2023-01-13T11:37:37.486Z,92.80
2023-01-13T11:40:21.599Z,92.50
2023-01-13T11:43:01.901Z,92.70
2023-01-13T11:45:55.684Z,92.20
2023-01-13T11:48:27.500Z,91.80
2023-01-13T11:51:15.114Z,91.20
2023-01-13T11:54:24.315Z,91.40
2023-01-13T11:57:28.431Z,90.80
2023-01-13T12:00:29.955Z,90.50
2023-01-13T12:03:23.115Z,90.10
2023-01-13T12:06:23.579Z,90.10
2023-01-13T12:09:39.304Z,90.00
2023-01-13T12:12:39.114Z,88.40
2023-01-13T12:15:21.478Z,88.10
2023-01-13T12:18:25.645Z,87.60
2023-01-13T12:21:21.187Z,88.00
2023-01-13T12:24:27.272Z,87.90
2023-01-13T12:27:32.578Z,87.70
2023-01-13T12:30:04.274Z,87.70
2023-01-13T12:32:37.943Z,88.20
2023-01-13T12:35:27.977Z,88.30
2023-01-13T12:38:13.895Z,87.80
2023-01-13T12:41:17.516Z,88.00
2023-01-13T12:44:07.001Z,88.00
2023-01-13T12:46:36.550Z,87.50
2023-01-13T12:49:04.607Z,86.90
2023-01-13T12:52:07.173Z,86.70
2023-01-13T12:54:37.021Z,87.70
2023-01-13T12:57:25.433Z,88.10
2023-01-13T13:00:04.809Z,87.00
2023-01-13T13:02:38.469Z,86.80
2023-01-13T13:05:14.598Z,86.40
2023-01-13T13:07:49.645Z,84.90
2023-01-13T13:10:34.015Z,85.40
2023-01-13T13:13:18.352Z,84.50
2023-01-13T13:15:51.094Z,84.70
2023-01-13T13:18:17.866Z,84.50
2023-01-13T13:21:08.724Z,84.20
2023-01-13T13:24:04.476Z,84.40
2023-01-13T13:26:37.822Z,84.20
2023-01-13T13:29:36.084Z,85.00
2023-01-13T13:32:38.448Z,85.10
2023-01-13T13:35:14.022Z,84.50
2023-01-13T13:38:29.170Z,84.80
2023-01-13T13:41:14.936Z,85.00
2023-01-13T13:44:03.700Z,85.30
2023-01-13T13:46:49.790Z,84.40
2023-01-13T13:49:34.289Z,84.90
2023-01-13T13:52:11.693Z,83.10
2023-01-13T13:54:47.462Z,83.60
2023-01-13T13:57:20.592Z,82.80
2023-01-13T13:59:55.881Z,83.30
2023-01-13T14:02:31.159Z,83.40
2023-01-13T14:05:20.307Z,83.10
2023-01-13T14:08:01.069Z,83.60
2023-01-13T14:10:35.558Z,81.60
2023-01-13T14:13:21.849Z,82.40
2023-01-13T14:15:56.678Z,82.10
2023-01-13T14:18:24.592Z,82.20
2023-01-13T14:21:00.919Z,82.20
2023-01-13T14:23:32.874Z,82.50
2023-01-13T14:26:12.829Z,82.70
2023-01-13T14:28:40.982Z,82.70
2023-01-13T14:31:09.542Z,82.50
2023-01-13T14:33:43.170Z,83.20
2023-01-13T14:36:31.861Z,82.70
2023-01-13T14:39:04.774Z,83.10
2023-01-13T14:41:42.634Z,81.80
2023-01-13T14:44:35.008Z,82.60
2023-01-13T14:47:33.711Z,82.50
2023-01-13T14:50:19.807Z,82.60
2023-01-13T14:52:54.659Z,82.40
2023-01-13T14:55:31.686Z,82.80
2023-01-13T14:58:37.347Z,82.80
2023-01-13T15:01:28.829Z,83.20
2023-01-13T15:04:15.813Z,82.60
2023-01-13T15:06:47.746Z,82.90
2023-01-13T15:09:17.828Z,83.10
2023-01-13T15:11:44.830Z,83.30
2023-01-13T15:14:11.913Z,83.50
2023-01-13T15:16:38.800Z,83.20
2023-01-13T15:19:05.729Z,83.20
2023-01-13T15:21:32.685Z,83.30
2023-01-13T15:23:59.890Z,83.70
2023-01-13T15:26:29.732Z,83.90
2023-01-13T15:28:58.417Z,83.80
2023-01-13T15:31:27.095Z,84.30
2023-01-13T15:33:54.309Z,84.10
2023-01-13T15:36:31.041Z,84.20
2023-01-13T15:38:59.670Z,84.40
2023-01-13T15:41:45.409Z,84.30
2023-01-13T15:44:33.617Z,84.80
2023-01-13T15:47:05.798Z,84.50
2023-01-13T15:49:40.967Z,85.00
2023-01-13T15:52:23.947Z,84.60
2023-01-13T15:54:52.185Z,84.60
2023-01-13T15:57:34.302Z,84.80
2023-01-13T16:00:08.072Z,85.00
2023-01-13T16:02:35.084Z,85.30
2023-01-13T16:05:02.032Z,85.10
2023-01-13T16:07:28.889Z,85.40
2023-01-13T16:09:56.492Z,85.30
2023-01-13T16:12:23.393Z,85.50
2023-01-13T16:14:50.386Z,85.80
2023-01-13T16:17:27.303Z,85.70
2023-01-13T16:19:54.214Z,85.10
2023-01-13T16:22:21.222Z,85.10
2023-01-13T16:24:48.411Z,85.10
2023-01-13T16:27:19.613Z,85.40
2023-01-13T16:29:47.315Z,85.80
2023-01-13T16:32:14.241Z,85.70
2023-01-13T16:34:41.662Z,85.80
2023-01-13T16:37:26.770Z,86.20
2023-01-13T16:39:56.597Z,86.50
2023-01-13T16:42:25.473Z,86.60
2023-01-13T16:44:52.844Z,86.90
2023-01-13T16:47:20.610Z,86.80
2023-01-13T16:49:47.508Z,87.10
2023-01-13T16:52:14.397Z,87.40
2023-01-13T16:54:41.392Z,87.60
2023-01-13T16:57:13.292Z,87.70
2023-01-13T16:59:40.227Z,87.80
2023-01-13T17:02:14.603Z,88.00
2023-01-13T17:04:41.492Z,88.10
2023-01-13T17:07:09.875Z,88.20
2023-01-13T17:09:36.790Z,88.20
2023-01-13T17:12:03.880Z,88.50
2023-01-13T17:14:30.756Z,88.70
2023-01-13T17:17:00.677Z,88.90
2023-01-13T17:19:27.730Z,89.10
2023-01-13T17:21:54.685Z,89.20
2023-01-13T17:24:21.665Z,89.30
2023-01-13T17:26:50.927Z,89.50
2023-01-13T17:29:23.308Z,89.60
2023-01-13T17:31:51.536Z,89.40
2023-01-13T17:34:19.685Z,89.50
2023-01-13T17:36:46.800Z,89.70
2023-01-13T17:39:21.367Z,89.50
2023-01-13T17:41:48.508Z,89.50
2023-01-13T17:44:18.591Z,89.30
2023-01-13T17:46:46.106Z,89.30
2023-01-13T17:49:15.601Z,89.30
2023-01-13T17:51:42.669Z,89.20
2023-01-13T17:54:13.243Z,89.10
2023-01-13T17:56:41.406Z,89.00
2023-01-13T17:59:10.625Z,89.10
2023-01-13T18:01:39.122Z,89.10
2023-01-13T18:04:06.998Z,89.30
2023-01-13T18:06:34.133Z,89.40
2023-01-13T18:09:01.343Z,89.60
2023-01-13T18:11:28.391Z,89.60
2023-01-13T18:14:01.307Z,89.50
2023-01-13T18:16:30.441Z,89.80
2023-01-13T18:19:18.388Z,89.80
2023-01-13T18:22:05.691Z,89.90
2023-01-13T18:24:51.641Z,90.00
2023-01-13T18:27:24.178Z,90.00
2023-01-13T18:29:54.396Z,89.90
2023-01-13T18:32:23.495Z,90.00
2023-01-13T18:34:53.951Z,90.00
2023-01-13T18:37:25.705Z,90.00
2023-01-13T18:39:52.750Z,90.00
2023-01-13T18:42:38.015Z,90.00
2023-01-13T18:45:05.385Z,90.30
2023-01-13T18:47:33.556Z,90.20
2023-01-13T18:50:00.572Z,90.20
2023-01-13T18:52:27.682Z,90.20
2023-01-13T18:54:54.580Z,90.30
2023-01-13T18:57:22.218Z,90.20
2023-01-13T18:59:49.109Z,90.30
2023-01-13T19:02:19.971Z,90.40
2023-01-13T19:04:47.430Z,90.30
2023-01-13T19:07:22.101Z,90.20
2023-01-13T19:09:50.036Z,90.20
2023-01-13T19:12:26.047Z,90.30
2023-01-13T19:14:54.998Z,90.30
2023-01-13T19:17:24.165Z,90.40
2023-01-13T19:19:54.729Z,90.50
2023-01-13T19:22:27.255Z,90.40
2023-01-13T19:24:54.582Z,90.30
2023-01-13T19:27:22.073Z,90.50
2023-01-13T19:29:52.487Z,90.50
2023-01-13T19:32:23.097Z,90.60
2023-01-13T19:34:51.095Z,90.80
2023-01-13T19:37:19.549Z,90.90
2023-01-13T19:39:47.011Z,91.20
2023-01-13T19:42:32.953Z,91.50
2023-01-13T19:45:18.424Z,91.70
2023-01-13T19:47:46.067Z,92.00
2023-01-13T19:50:14.354Z,92.10
2023-01-13T19:52:42.649Z,92.30
2023-01-13T19:55:12.399Z,92.50
2023-01-13T19:57:40.714Z,92.50
2023-01-13T20:00:09.304Z,92.30
2023-01-13T20:02:47.900Z,92.30
2023-01-13T20:05:21.042Z,92.30
2023-01-13T20:07:49.748Z,92.30
2023-01-13T20:10:18.526Z,92.30
2023-01-13T20:12:45.521Z,91.90
2023-01-13T20:15:12.418Z,91.90
2023-01-13T20:17:40.595Z,91.90
2023-01-13T20:20:09.606Z,91.80
2023-01-13T20:22:40.537Z,91.80
2023-01-13T20:25:08.734Z,91.80
2023-01-13T20:27:35.852Z,91.80
2023-01-13T20:30:04.022Z,91.90
2023-01-13T20:32:30.943Z,91.90
2023-01-13T20:34:57.817Z,92.10
2023-01-13T20:37:24.895Z,92.10
2023-01-13T20:39:51.782Z,92.20
2023-01-13T20:42:30.613Z,92.10
2023-01-13T20:45:01.224Z,92.20
2023-01-13T20:47:29.817Z,92.30
2023-01-13T20:49:56.718Z,92.40
2023-01-13T20:52:23.880Z,92.50
2023-01-13T20:54:50.836Z,92.50
2023-01-13T20:57:18.153Z,92.40
2023-01-13T20:59:45.283Z,92.50
2023-01-13T21:02:14.891Z,92.60
2023-01-13T21:04:41.837Z,92.70
2023-01-13T21:07:09.379Z,92.70
2023-01-13T21:09:36.624Z,92.90
2023-01-13T21:12:23.705Z,93.00
2023-01-13T21:15:09.105Z,93.10
2023-01-13T21:18:08.347Z,93.20
2023-01-13T21:20:37.192Z,93.20
2023-01-13T21:23:04.943Z,93.30
2023-01-13T21:25:35.374Z,93.40
2023-01-13T21:28:06.246Z,93.40
2023-01-13T21:30:33.709Z,93.40
2023-01-13T21:33:00.930Z,93.50
2023-01-13T21:35:27.850Z,93.60
2023-01-13T21:37:54.763Z,93.70
2023-01-13T21:40:21.663Z,93.70
2023-01-13T21:43:06.950Z,93.70
2023-01-13T21:45:52.344Z,93.70
2023-01-13T21:48:19.290Z,93.70
2023-01-13T21:50:46.209Z,94.00
2023-01-13T21:53:13.096Z,94.10
2023-01-13T21:55:40.196Z,94.20
2023-01-13T21:58:11.578Z,94.30
2023-01-13T22:00:40.120Z,94.40
2023-01-13T22:03:09.635Z,94.40
2023-01-13T22:05:36.767Z,94.50
2023-01-13T22:08:04.756Z,94.50
2023-01-13T22:10:31.803Z,94.40
2023-01-13T22:13:21.335Z,94.40
2023-01-13T22:15:48.240Z,94.30
2023-01-13T22:18:15.168Z,94.20
2023-01-13T22:20:42.098Z,94.10
2023-01-13T22:23:09.103Z,94.10
2023-01-13T22:25:36.050Z,94.00
2023-01-13T22:28:06.005Z,94.00
2023-01-13T22:30:33.333Z,93.90
2023-01-13T22:33:00.615Z,93.70
2023-01-13T22:35:27.559Z,93.80
2023-01-13T22:37:54.470Z,93.70
2023-01-13T22:40:21.401Z,93.80
2023-01-13T22:42:48.294Z,93.70
2023-01-13T22:45:15.183Z,93.70
2023-01-13T22:47:42.239Z,93.70
2023-01-13T22:50:10.217Z,93.60
2023-01-13T22:52:37.186Z,93.70
2023-01-13T22:55:06.838Z,93.60
2023-01-13T22:57:36.734Z,93.60
2023-01-13T23:00:14.816Z,93.60
2023-01-13T23:02:41.965Z,93.50
2023-01-13T23:05:09.257Z,93.50
2023-01-13T23:07:36.313Z,93.30
2023-01-13T23:10:04.298Z,93.30
2023-01-13T23:12:31.412Z,93.40
2023-01-13T23:14:58.294Z,93.30
2023-01-13T23:17:25.201Z,93.40
2023-01-13T23:19:52.073Z,93.30
2023-01-13T23:22:19.199Z,93.30
2023-01-13T23:24:46.209Z,93.20
2023-01-13T23:27:13.138Z,93.20
2023-01-13T23:29:40.060Z,93.10
2023-01-13T23:32:06.956Z,93.00
2023-01-13T23:34:33.823Z,93.10
2023-01-13T23:37:00.733Z,93.10
2023-01-13T23:39:27.630Z,93.20
2023-01-13T23:41:54.893Z,93.20
2023-01-13T23:44:21.860Z,93.20
2023-01-13T23:46:48.763Z,93.20
2023-01-13T23:49:15.661Z,93.20
2023-01-13T23:51:42.631Z,93.30
2023-01-13T23:54:09.756Z,93.30
2023-01-13T23:56:39.452Z,93.30
2023-01-13T23:59:06.937Z,93.30
